Terminal Aerodrome Forecast
Issued by NWS Shreveport, LA

Home | Current Version | Previous Version | Text Only | Print | Product List | Glossary On
Versions: 1 2 3 4 5 6 7 8 9 10 11 12 13 14 15 16
647
FTUS44 KSHV 262349
TAFLFK
TAF
KLFK 262349Z 2700/2724 VRB04KT P6SM VCSH SCT050 BKN100
      TEMPO 2701/2703 5SM -TSRA BR BKN045CB OVC080
     FM270400 VRB03KT P6SM BKN040 OVC070
     FM271100 VRB03KT 6SM BR VCSH SCT010 BKN020 OVC040
      TEMPO 2713/2716 3SM -TSRA BR BKN020CB OVC040
     FM271700 05004KT P6SM BKN100 OVC150=

USA.gov is the U.S. government's official web portal to all federal, state and local government web resources and services.